createdAt,value
2023-11-16T00:00:37.827Z,11.41
2023-11-16T00:03:06.842Z,11.42
2023-11-16T00:05:36.914Z,11.44
2023-11-16T00:08:08.754Z,11.41
2023-11-16T00:10:36.156Z,11.36
2023-11-16T00:13:06.272Z,11.33
2023-11-16T00:15:34.891Z,11.31
2023-11-16T00:18:05.241Z,11.28
2023-11-16T00:20:39.334Z,11.25
2023-11-16T00:23:07.311Z,11.22
2023-11-16T00:25:34.573Z,11.21
2023-11-16T00:28:02.052Z,11.13
2023-11-16T00:30:29.122Z,11.12
2023-11-16T00:32:56.242Z,11.10
2023-11-16T00:35:23.573Z,11.08
2023-11-16T00:37:54.180Z,11.07
2023-11-16T00:40:23.893Z,11.03
2023-11-16T00:42:52.335Z,11.02
2023-11-16T00:45:23.543Z,11.01
2023-11-16T00:47:50.682Z,11.03
2023-11-16T00:50:17.678Z,11.03
2023-11-16T00:52:48.333Z,11.05
2023-11-16T00:55:16.748Z,11.06
2023-11-16T00:57:49.371Z,11.06
2023-11-16T01:00:17.432Z,11.07
2023-11-16T01:02:44.571Z,11.07
2023-11-16T01:05:11.652Z,11.08
2023-11-16T01:07:39.978Z,11.09
2023-11-16T01:10:08.754Z,11.08
2023-11-16T01:12:36.520Z,11.10
2023-11-16T01:15:11.715Z,11.10
2023-11-16T01:17:40.281Z,11.11
2023-11-16T01:20:19.333Z,11.14
2023-11-16T01:23:02.491Z,11.13
2023-11-16T01:25:33.807Z,11.08
2023-11-16T01:28:02.288Z,11.06
2023-11-16T01:30:30.071Z,11.08
2023-11-16T01:32:58.269Z,11.09
2023-11-16T01:35:26.912Z,11.13
2023-11-16T01:37:57.541Z,11.12
2023-11-16T01:40:27.510Z,11.07
2023-11-16T01:42:58.685Z,11.07
2023-11-16T01:45:37.391Z,11.07
2023-11-16T01:48:08.565Z,11.07
2023-11-16T01:50:38.669Z,11.07
2023-11-16T01:53:12.277Z,11.08
2023-11-16T01:55:43.163Z,11.08
2023-11-16T01:58:11.225Z,11.11
2023-11-16T02:00:44.247Z,11.12
2023-11-16T02:03:14.678Z,11.11
2023-11-16T02:05:42.345Z,11.13
2023-11-16T02:08:10.919Z,11.13
2023-11-16T02:10:39.648Z,11.16
2023-11-16T02:13:26.974Z,11.15
2023-11-16T02:15:57.224Z,11.11
2023-11-16T02:18:27.248Z,11.07
2023-11-16T02:20:56.434Z,11.08
2023-11-16T02:23:23.965Z,11.10
2023-11-16T02:25:58.339Z,11.08
2023-11-16T02:28:25.694Z,11.09
2023-11-16T02:30:53.600Z,11.07
2023-11-16T02:33:21.212Z,11.05
2023-11-16T02:35:49.791Z,11.04
2023-11-16T02:38:18.259Z,11.06
2023-11-16T02:40:45.986Z,11.06
2023-11-16T02:43:13.387Z,11.06
2023-11-16T02:45:41.077Z,11.07
2023-11-16T02:48:08.269Z,11.06
2023-11-16T02:50:35.940Z,11.06
2023-11-16T02:53:04.571Z,11.04
2023-11-16T02:55:34.425Z,11.05
2023-11-16T02:58:04.119Z,11.03
2023-11-16T03:00:33.686Z,11.03
2023-11-16T03:03:03.743Z,10.99
2023-11-16T03:05:32.986Z,10.97
2023-11-16T03:08:00.252Z,10.97
2023-11-16T03:10:29.877Z,10.96
2023-11-16T03:12:57.457Z,10.97
2023-11-16T03:15:24.442Z,10.96
2023-11-16T03:17:51.598Z,10.96
2023-11-16T03:20:22.132Z,10.96
2023-11-16T03:22:50.014Z,10.94
2023-11-16T03:25:17.299Z,10.95
2023-11-16T03:27:45.947Z,10.95
2023-11-16T03:30:17.425Z,10.93
2023-11-16T03:32:46.951Z,10.93
2023-11-16T03:35:17.261Z,10.94
2023-11-16T03:37:47.105Z,10.94
2023-11-16T03:40:14.159Z,10.93
2023-11-16T03:42:42.360Z,10.89
2023-11-16T03:45:12.328Z,10.88
2023-11-16T03:47:39.595Z,10.89
2023-11-16T03:50:07.255Z,10.90
2023-11-16T03:52:34.628Z,10.91
2023-11-16T03:55:01.698Z,10.91
2023-11-16T03:57:29.044Z,10.91
2023-11-16T03:59:56.253Z,10.93
2023-11-16T04:02:23.383Z,10.93
2023-11-16T04:04:53.502Z,10.93
2023-11-16T04:07:20.624Z,10.90
2023-11-16T04:09:48.213Z,10.85
2023-11-16T04:12:16.702Z,10.79
2023-11-16T04:14:44.706Z,10.72
2023-11-16T04:17:14.924Z,10.66
2023-11-16T04:19:43.207Z,10.60
2023-11-16T04:22:11.752Z,10.57
2023-11-16T04:24:42.856Z,10.52
2023-11-16T04:27:10.959Z,10.48
2023-11-16T04:29:38.880Z,10.40
2023-11-16T04:32:07.039Z,10.33
2023-11-16T04:34:34.319Z,10.28
2023-11-16T04:37:08.353Z,10.25
2023-11-16T04:39:35.374Z,10.21
2023-11-16T04:42:02.593Z,10.16
2023-11-16T04:44:29.734Z,10.13
2023-11-16T04:46:57.492Z,10.09
2023-11-16T04:49:24.730Z,10.04
2023-11-16T04:51:52.053Z,10.03
2023-11-16T04:54:21.753Z,10.01
2023-11-16T04:56:48.755Z,10.00
2023-11-16T04:59:15.856Z,9.96
2023-11-16T05:01:42.919Z,9.94
2023-11-16T05:04:10.162Z,9.89
2023-11-16T05:06:42.161Z,9.83
2023-11-16T05:09:09.896Z,9.78
2023-11-16T05:11:39.152Z,9.75
2023-11-16T05:14:06.086Z,9.73
2023-11-16T05:16:32.957Z,9.70
2023-11-16T05:18:59.982Z,9.68
2023-11-16T05:21:27.712Z,9.67
2023-11-16T05:23:54.781Z,9.63
2023-11-16T05:26:21.857Z,9.58
2023-11-16T05:28:51.094Z,9.55
2023-11-16T05:31:18.098Z,9.52
2023-11-16T05:33:45.136Z,9.50
2023-11-16T05:36:12.735Z,9.50
2023-11-16T05:38:40.039Z,9.47
2023-11-16T05:41:08.182Z,9.45
2023-11-16T05:43:36.208Z,9.43
2023-11-16T05:46:03.239Z,9.43
2023-11-16T05:48:30.263Z,9.40
2023-11-16T05:50:58.454Z,9.38
2023-11-16T05:53:25.421Z,9.31
2023-11-16T05:55:53.819Z,9.26
2023-11-16T05:58:21.267Z,9.23
2023-11-16T06:00:48.939Z,9.21
2023-11-16T06:03:17.482Z,9.19
2023-11-16T06:05:44.637Z,9.17
2023-11-16T06:08:11.886Z,9.13
2023-11-16T06:10:42.817Z,9.09
2023-11-16T06:13:11.051Z,9.04
2023-11-16T06:15:38.171Z,9.03
2023-11-16T06:18:15.502Z,9.03
2023-11-16T06:20:47.839Z,9.02
2023-11-16T06:23:15.044Z,8.91
2023-11-16T06:25:43.371Z,8.89
2023-11-16T06:28:11.444Z,8.88
2023-11-16T06:30:40.457Z,8.88
2023-11-16T06:33:07.910Z,8.88
2023-11-16T06:35:34.945Z,8.87
2023-11-16T06:38:02.579Z,8.87
2023-11-16T06:40:31.871Z,8.86
2023-11-16T06:43:00.265Z,8.86
2023-11-16T06:45:30.701Z,8.86
2023-11-16T06:48:03.429Z,8.87
2023-11-16T06:50:35.269Z,8.88
2023-11-16T06:53:06.868Z,8.89
2023-11-16T06:55:34.042Z,8.90
2023-11-16T06:58:03.576Z,8.92
2023-11-16T07:00:32.137Z,8.91
2023-11-16T07:02:59.449Z,8.90
2023-11-16T07:05:26.912Z,8.89
2023-11-16T07:07:54.064Z,8.92
2023-11-16T07:10:21.374Z,8.88
2023-11-16T07:12:48.702Z,8.87
2023-11-16T07:15:16.389Z,8.92
2023-11-16T07:17:44.695Z,8.85
2023-11-16T07:20:13.347Z,8.89
2023-11-16T07:22:42.393Z,8.92
2023-11-16T07:25:13.401Z,8.94
2023-11-16T07:27:40.592Z,8.99
2023-11-16T07:30:08.880Z,9.01
2023-11-16T07:32:36.621Z,9.06
2023-11-16T07:35:16.136Z,9.09
2023-11-16T07:37:48.697Z,9.15
2023-11-16T07:40:21.619Z,9.17
2023-11-16T07:42:48.756Z,9.20
2023-11-16T07:45:16.703Z,9.23
2023-11-16T07:47:46.153Z,9.28
2023-11-16T07:50:17.046Z,9.31
2023-11-16T07:52:45.101Z,9.36
2023-11-16T07:55:17.717Z,9.41
2023-11-16T07:57:51.227Z,9.49
2023-11-16T08:00:31.671Z,9.52
2023-11-16T08:03:19.219Z,9.61
2023-11-16T08:05:48.493Z,9.69
2023-11-16T08:08:20.446Z,9.74
2023-11-16T08:10:52.475Z,9.81
2023-11-16T08:13:19.998Z,9.88
2023-11-16T08:15:55.060Z,9.91
2023-11-16T08:18:23.150Z,9.97
2023-11-16T08:20:55.192Z,10.02
2023-11-16T08:23:26.936Z,10.09
2023-11-16T08:25:59.208Z,10.16
2023-11-16T08:28:29.815Z,10.26
2023-11-16T08:31:00.015Z,10.29
2023-11-16T08:34:18.009Z,10.30
2023-11-16T08:37:02.726Z,10.41
2023-11-16T08:39:30.663Z,10.41
2023-11-16T08:42:54.520Z,10.51
2023-11-16T08:45:22.828Z,10.61
2023-11-16T08:48:00.898Z,10.64
2023-11-16T08:50:29.086Z,10.71
2023-11-16T08:52:58.848Z,10.76
2023-11-16T08:55:27.408Z,10.84
2023-11-16T08:58:00.781Z,10.89
2023-11-16T09:00:29.530Z,10.95
2023-11-16T09:03:05.029Z,10.99
2023-11-16T09:05:34.031Z,11.04
2023-11-16T09:08:02.480Z,11.10
2023-11-16T09:10:33.464Z,11.14
2023-11-16T09:13:02.067Z,11.16
2023-11-16T09:15:30.525Z,11.18
2023-11-16T09:17:59.660Z,11.18
2023-11-16T09:20:29.146Z,11.30
2023-11-16T09:22:59.099Z,11.33
2023-11-16T09:25:32.883Z,11.37
2023-11-16T09:28:02.443Z,11.43
2023-11-16T09:30:44.579Z,11.51
2023-11-16T09:33:14.256Z,11.54
2023-11-16T09:36:06.521Z,11.60
2023-11-16T09:38:37.833Z,11.63
2023-11-16T09:41:27.272Z,11.68
2023-11-16T09:44:31.482Z,11.77
2023-11-16T09:47:04.818Z,11.83
2023-11-16T09:53:37.025Z,11.98
2023-11-16T09:56:06.212Z,12.02
2023-11-16T09:58:41.007Z,12.05
2023-11-16T10:01:20.233Z,12.10
2023-11-16T10:03:49.977Z,12.12
2023-11-16T10:06:22.042Z,12.13
2023-11-16T10:08:53.116Z,12.16
2023-11-16T10:11:32.569Z,12.19
2023-11-16T10:14:00.825Z,12.24
2023-11-16T10:16:31.227Z,12.23
2023-11-16T10:19:08.923Z,12.27
2023-11-16T10:21:43.465Z,12.30
2023-11-16T10:24:13.645Z,12.31
2023-11-16T10:26:41.411Z,12.33
2023-11-16T10:29:12.578Z,12.37
2023-11-16T10:31:47.765Z,12.38
2023-11-16T10:34:19.440Z,12.37
2023-11-16T10:36:48.100Z,12.41
2023-11-16T10:39:17.867Z,12.40
2023-11-16T10:41:46.260Z,12.47
2023-11-16T10:44:15.211Z,12.50
2023-11-16T10:46:44.686Z,12.50
2023-11-16T10:49:14.881Z,12.55
2023-11-16T10:51:48.614Z,12.54
2023-11-16T10:54:21.192Z,12.57
2023-11-16T10:56:54.873Z,12.58
2023-11-16T10:59:29.023Z,12.67
2023-11-16T11:02:02.246Z,12.74
2023-11-16T11:04:29.832Z,12.80
2023-11-16T11:06:58.148Z,12.86
2023-11-16T11:09:47.615Z,12.90
2023-11-16T11:12:17.174Z,12.89
2023-11-16T11:14:52.897Z,12.89
2023-11-16T11:17:31.452Z,12.86
2023-11-16T11:20:00.672Z,12.85
2023-11-16T11:22:32.962Z,12.88
2023-11-16T11:25:07.502Z,12.91
2023-11-16T11:27:34.675Z,12.92
2023-11-16T11:30:12.289Z,12.94
2023-11-16T11:33:00.858Z,12.93
2023-11-16T11:35:39.052Z,12.94
2023-11-16T11:38:20.968Z,12.95
2023-11-16T11:41:00.228Z,12.98
2023-11-16T11:43:28.269Z,13.01
2023-11-16T11:45:59.201Z,13.05
2023-11-16T11:48:28.165Z,13.06
2023-11-16T11:51:00.744Z,13.09
2023-11-16T11:53:31.373Z,13.11
2023-11-16T11:56:00.390Z,13.15
2023-11-16T11:58:30.324Z,13.17
2023-11-16T12:01:05.375Z,13.21
2023-11-16T12:03:34.977Z,13.25
2023-11-16T12:06:04.323Z,13.29
2023-11-16T12:08:52.692Z,13.31
2023-11-16T12:11:27.108Z,13.33
2023-11-16T12:13:56.869Z,13.29
2023-11-16T12:16:25.440Z,13.30
2023-11-16T12:18:55.322Z,13.31
2023-11-16T12:21:24.685Z,13.33
2023-11-16T12:23:56.640Z,13.31
2023-11-16T12:26:30.033Z,13.31
2023-11-16T12:29:01.473Z,13.37
2023-11-16T12:31:29.032Z,13.39
2023-11-16T12:33:58.824Z,13.40
2023-11-16T12:36:32.716Z,13.42
2023-11-16T12:39:00.334Z,13.44
2023-11-16T12:41:27.754Z,13.43
2023-11-16T12:43:54.929Z,13.43
2023-11-16T12:46:26.577Z,13.42
2023-11-16T12:48:59.031Z,13.43
2023-11-16T12:51:33.362Z,13.43
2023-11-16T12:54:09.864Z,13.45
2023-11-16T12:56:39.308Z,13.45
2023-11-16T12:59:11.025Z,13.46
2023-11-16T13:01:52.005Z,13.48
2023-11-16T13:04:20.945Z,13.47
2023-11-16T13:06:51.658Z,13.47
2023-11-16T13:09:26.199Z,13.46
2023-11-16T13:12:00.518Z,13.45
2023-11-16T13:14:33.039Z,13.45
2023-11-16T13:17:05.172Z,13.47
2023-11-16T13:19:32.508Z,13.49
2023-11-16T13:22:02.979Z,13.50
2023-11-16T13:24:33.172Z,13.51
2023-11-16T13:27:00.786Z,13.52
2023-11-16T13:29:30.048Z,13.55
2023-11-16T13:32:00.551Z,13.55
2023-11-16T13:34:27.736Z,13.56
2023-11-16T13:36:56.947Z,13.57
2023-11-16T13:39:24.348Z,13.60
2023-11-16T13:41:51.597Z,13.60
2023-11-16T13:44:22.220Z,13.60
2023-11-16T13:46:51.214Z,13.60
2023-11-16T13:49:23.574Z,13.61
2023-11-16T13:52:00.078Z,13.63
2023-11-16T13:54:27.272Z,13.63
2023-11-16T13:56:57.160Z,13.64
2023-11-16T13:59:24.682Z,13.65
2023-11-16T14:01:51.851Z,13.66
2023-11-16T14:04:22.694Z,13.66
2023-11-16T14:06:50.133Z,13.68
2023-11-16T14:09:21.440Z,13.67
2023-11-16T14:11:51.637Z,13.68
2023-11-16T14:14:18.751Z,13.68
2023-11-16T14:16:46.179Z,13.68
2023-11-16T14:19:13.425Z,13.69
2023-11-16T14:21:43.734Z,13.69
2023-11-16T14:24:28.418Z,13.68
2023-11-16T14:27:01.231Z,13.68
2023-11-16T14:29:30.556Z,13.66
2023-11-16T14:31:57.766Z,13.67
2023-11-16T14:34:25.206Z,13.67
2023-11-16T14:36:55.154Z,13.70
2023-11-16T14:39:30.969Z,13.73
2023-11-16T14:41:58.277Z,13.73
2023-11-16T14:44:25.708Z,13.71
2023-11-16T14:47:15.132Z,13.71
2023-11-16T14:49:46.053Z,13.71
2023-11-16T14:52:16.120Z,13.68
2023-11-16T14:54:46.303Z,13.65
2023-11-16T14:57:16.065Z,13.63
2023-11-16T14:59:50.253Z,13.61
2023-11-16T15:02:21.385Z,13.61
2023-11-16T15:04:56.988Z,13.60
2023-11-16T15:07:29.622Z,13.59
2023-11-16T15:09:57.563Z,13.58
2023-11-16T15:12:27.822Z,13.57
2023-11-16T15:15:02.030Z,13.54
2023-11-16T15:17:29.942Z,13.52
2023-11-16T15:19:58.435Z,13.53
2023-11-16T15:22:35.017Z,13.51
2023-11-16T15:25:05.073Z,13.50
2023-11-16T15:27:41.057Z,13.48
2023-11-16T15:30:15.119Z,13.46
2023-11-16T15:32:45.540Z,13.45
2023-11-16T15:35:19.078Z,13.42
2023-11-16T15:37:48.044Z,13.39
2023-11-16T15:40:16.762Z,13.37
2023-11-16T15:42:45.364Z,13.32
2023-11-16T15:45:16.685Z,13.26
2023-11-16T15:47:43.962Z,13.20
2023-11-16T15:50:13.549Z,13.14
2023-11-16T15:52:40.809Z,13.09
2023-11-16T15:55:15.122Z,13.02
2023-11-16T15:57:47.309Z,12.95
2023-11-16T16:00:22.753Z,12.90
2023-11-16T16:02:56.003Z,12.81
2023-11-16T16:05:44.450Z,12.74
2023-11-16T16:08:20.706Z,12.68
2023-11-16T16:10:50.409Z,12.65
2023-11-16T16:13:17.662Z,12.62
2023-11-16T16:15:53.284Z,12.59
2023-11-16T16:18:20.636Z,12.55
2023-11-16T16:20:50.758Z,12.53
2023-11-16T16:23:21.626Z,12.52
2023-11-16T16:25:50.029Z,12.46
2023-11-16T16:28:23.108Z,12.40
2023-11-16T16:30:50.295Z,12.38
2023-11-16T16:33:17.892Z,12.37
2023-11-16T16:35:45.842Z,12.36
2023-11-16T16:38:16.890Z,12.35
2023-11-16T16:40:50.595Z,12.36
2023-11-16T16:43:19.248Z,12.37
2023-11-16T16:45:48.651Z,12.39
2023-11-16T16:48:24.459Z,12.41
2023-11-16T16:50:54.399Z,12.44
2023-11-16T16:53:27.744Z,12.45
2023-11-16T16:55:57.227Z,12.44
2023-11-16T16:58:26.689Z,12.43
2023-11-16T17:00:53.929Z,12.43
2023-11-16T17:03:21.793Z,12.45
2023-11-16T17:05:53.688Z,12.44
2023-11-16T17:08:23.329Z,12.39
2023-11-16T17:10:56.592Z,12.36
2023-11-16T17:13:32.105Z,12.33
2023-11-16T17:16:05.475Z,12.35
2023-11-16T17:18:40.206Z,12.33
2023-11-16T17:21:08.514Z,12.33
2023-11-16T17:23:36.017Z,12.34
2023-11-16T17:26:09.006Z,12.35
2023-11-16T17:28:41.724Z,12.35
2023-11-16T17:31:09.300Z,12.37
2023-11-16T17:33:39.872Z,12.38
2023-11-16T17:36:08.135Z,12.42
2023-11-16T17:38:37.046Z,12.43
2023-11-16T17:41:09.352Z,12.45
2023-11-16T17:43:41.497Z,12.45
2023-11-16T17:46:11.666Z,12.47
2023-11-16T17:48:38.911Z,12.46
2023-11-16T17:51:11.781Z,12.48
2023-11-16T17:53:48.721Z,12.47
2023-11-16T17:56:21.281Z,12.48
2023-11-16T17:58:48.996Z,12.48
2023-11-16T18:01:19.195Z,12.49
2023-11-16T18:03:57.157Z,12.49
2023-11-16T18:06:34.058Z,12.52
2023-11-16T18:09:07.806Z,12.50
2023-11-16T18:11:38.010Z,12.51
2023-11-16T18:14:08.845Z,12.51
2023-11-16T18:16:42.039Z,12.52
2023-11-16T18:19:11.259Z,12.53
2023-11-16T18:21:43.768Z,12.55
2023-11-16T18:24:18.591Z,12.56
2023-11-16T18:26:46.575Z,12.56
2023-11-16T18:29:21.287Z,12.56
2023-11-16T18:31:54.448Z,12.55
2023-11-16T18:34:45.293Z,12.54
2023-11-16T18:37:13.816Z,12.57
2023-11-16T18:39:41.189Z,12.55
2023-11-16T18:42:11.702Z,12.55
2023-11-16T18:44:39.816Z,12.56
2023-11-16T18:47:12.891Z,12.56
2023-11-16T18:49:44.195Z,12.58
2023-11-16T18:52:12.691Z,12.57
2023-11-16T18:54:43.986Z,12.58
2023-11-16T18:57:16.876Z,12.58
2023-11-16T18:59:45.368Z,12.59
2023-11-16T19:02:16.813Z,12.57
2023-11-16T19:04:45.380Z,12.57
2023-11-16T19:07:13.549Z,12.55
2023-11-16T19:09:42.145Z,12.53
2023-11-16T19:12:14.945Z,12.49
2023-11-16T19:14:45.993Z,12.47
2023-11-16T19:17:19.590Z,12.46
2023-11-16T19:19:50.037Z,12.46
2023-11-16T19:22:23.102Z,12.47
2023-11-16T19:24:53.360Z,12.45
2023-11-16T19:27:29.632Z,12.41
2023-11-16T19:30:02.402Z,12.40
2023-11-16T19:32:38.604Z,12.39
2023-11-16T19:35:13.166Z,12.40
2023-11-16T19:37:56.642Z,12.43
2023-11-16T19:40:41.656Z,12.44
2023-11-16T19:43:15.670Z,12.44
2023-11-16T19:45:43.283Z,12.45
2023-11-16T19:48:13.466Z,12.45
2023-11-16T19:50:43.567Z,12.45
2023-11-16T19:53:13.785Z,12.43
2023-11-16T19:55:41.091Z,12.39
2023-11-16T19:58:13.163Z,12.38
2023-11-16T20:00:42.468Z,12.35
2023-11-16T20:03:10.128Z,12.35
2023-11-16T20:05:37.490Z,12.33
2023-11-16T20:08:04.941Z,12.35
2023-11-16T20:10:37.994Z,12.34
2023-11-16T20:13:07.478Z,12.31
2023-11-16T20:15:35.847Z,12.30
2023-11-16T20:18:03.179Z,12.27
2023-11-16T20:20:36.172Z,12.28
2023-11-16T20:23:08.231Z,12.27
2023-11-16T20:25:35.740Z,12.27
2023-11-16T20:28:02.950Z,12.24
2023-11-16T20:30:32.438Z,12.24
2023-11-16T20:33:01.283Z,12.22
2023-11-16T20:35:28.897Z,12.18
2023-11-16T20:37:56.012Z,12.16
2023-11-16T20:40:23.271Z,12.19
2023-11-16T20:42:51.081Z,12.17
2023-11-16T20:45:21.596Z,12.14
2023-11-16T20:47:51.079Z,12.14
2023-11-16T20:50:20.950Z,12.10
2023-11-16T20:52:48.395Z,12.02
2023-11-16T20:55:16.162Z,11.99
2023-11-16T20:57:43.567Z,12.00
2023-11-16T21:00:15.376Z,11.99
2023-11-16T21:02:43.757Z,12.01
2023-11-16T21:05:21.700Z,12.03
2023-11-16T21:07:50.754Z,12.06
2023-11-16T21:10:18.265Z,12.04
2023-11-16T21:12:50.018Z,12.03
2023-11-16T21:15:17.661Z,12.04
2023-11-16T21:17:45.693Z,12.01
2023-11-16T21:20:16.620Z,11.99
2023-11-16T21:22:44.799Z,11.96
2023-11-16T21:25:13.271Z,11.90
2023-11-16T21:27:41.251Z,11.86
2023-11-16T21:30:17.466Z,11.84
2023-11-16T21:32:44.958Z,11.78
2023-11-16T21:35:15.971Z,11.72
2023-11-16T21:37:45.738Z,11.65
2023-11-16T21:40:15.798Z,11.61
2023-11-16T21:42:45.558Z,11.58
2023-11-16T21:45:16.158Z,11.55
2023-11-16T21:47:44.910Z,11.51
2023-11-16T21:50:17.939Z,11.51
2023-11-16T21:52:45.130Z,11.46
2023-11-16T21:55:13.003Z,11.40
2023-11-16T21:57:43.016Z,11.37
2023-11-16T22:00:11.593Z,11.34
2023-11-16T22:02:38.937Z,11.31
2023-11-16T22:05:14.037Z,11.27
2023-11-16T22:07:46.228Z,11.23
2023-11-16T22:10:18.153Z,11.22
2023-11-16T22:12:52.240Z,11.19
2023-11-16T22:15:20.678Z,11.19
2023-11-16T22:17:51.987Z,11.21
2023-11-16T22:20:21.814Z,11.22
2023-11-16T22:22:50.446Z,11.21
2023-11-16T22:25:19.002Z,11.19
2023-11-16T22:27:48.392Z,11.16
2023-11-16T22:30:24.605Z,11.16
2023-11-16T22:32:52.127Z,11.15
2023-11-16T22:35:19.956Z,11.15
2023-11-16T22:37:47.821Z,11.16
2023-11-16T22:40:18.515Z,11.18
2023-11-16T22:42:51.847Z,11.19
2023-11-16T22:45:41.584Z,11.19
2023-11-16T22:48:08.779Z,11.18
2023-11-16T22:50:36.255Z,11.19
2023-11-16T22:53:04.763Z,11.18
2023-11-16T22:55:32.650Z,11.15
2023-11-16T22:58:02.756Z,11.15
2023-11-16T23:00:29.751Z,11.13
2023-11-16T23:02:57.053Z,11.12
2023-11-16T23:05:24.183Z,11.09
2023-11-16T23:07:52.461Z,11.09
2023-11-16T23:10:20.229Z,11.07
2023-11-16T23:12:53.494Z,11.05
2023-11-16T23:15:22.741Z,11.03
2023-11-16T23:17:50.908Z,10.98
2023-11-16T23:20:18.959Z,10.95
2023-11-16T23:22:48.012Z,10.94
2023-11-16T23:25:16.565Z,10.93
2023-11-16T23:27:47.302Z,10.91
2023-11-16T23:30:14.519Z,10.92
2023-11-16T23:32:42.657Z,10.91
2023-11-16T23:35:11.558Z,10.90
2023-11-16T23:37:38.905Z,10.91
2023-11-16T23:40:07.450Z,10.91
2023-11-16T23:42:35.397Z,10.90
2023-11-16T23:45:03.207Z,10.88
2023-11-16T23:47:30.227Z,10.88
2023-11-16T23:49:57.554Z,10.88
2023-11-16T23:52:24.715Z,10.90
2023-11-16T23:54:52.078Z,10.91
2023-11-16T23:57:19.241Z,10.93
2023-11-16T23:59:48.042Z,10.93
